Time;durP1;ratioP1;P1;durP2;ratioP2;P2;SDS_P1;SDS_P2;PMS_P1;PMS_P2;Temp;Humidity;BMP_temperature;BMP_pressure;BME280_temperature;BME280_humidity;BME280_pressure;Samples;Min_cycle;Max_cycle;Signal;HPM_P1;HPM_P2
2022/05/05 00:01:18;;;;;;;10.82;9.73;;;;;;;14.47;63.77;100679.56;4973085;28;20039;-74
2022/05/05 00:03:44;;;;;;;11.32;10.23;;;;;;;14.43;64.15;100689.34;4991661;28;20138;-74
2022/05/05 00:06:09;;;;;;;13.00;10.55;;;;;;;14.36;65.27;100687.75;4991497;28;20077;-74
2022/05/05 00:08:35;;;;;;;12.45;11.13;;;;;;;14.26;66.32;100683.50;4991391;28;20541;-74
2022/05/05 00:16:27;;;;;;;16.10;13.20;;;;;;;13.87;70.20;100682.47;4991669;28;20437;-74
2022/05/05 00:18:53;;;;;;;15.25;11.80;;;;;;;13.87;69.92;100677.16;4991498;28;20038;-74
2022/05/05 00:21:18;;;;;;;13.25;11.95;;;;;;;13.78;72.64;100678.16;4995049;28;20041;-74
2022/05/05 00:23:43;;;;;;;18.67;16.67;;;;;;;13.76;72.29;100675.56;4995380;28;20038;-74
2022/05/05 00:26:09;;;;;;;24.73;22.10;;;;;;;13.74;73.50;100679.13;4995478;28;20038;-74
2022/05/05 00:28:34;;;;;;;16.35;14.65;;;;;;;13.70;73.34;100675.66;4995385;28;20073;-74
2022/05/05 00:30:59;;;;;;;18.13;14.18;;;;;;;13.68;73.76;100681.91;4995367;28;20045;-75
2022/05/05 00:33:25;;;;;;;16.33;14.43;;;;;;;13.63;73.75;100686.41;4995157;28;20489;-74
2022/05/05 00:35:50;;;;;;;16.52;14.75;;;;;;;13.53;75.73;100673.28;4995296;28;20035;-74
2022/05/05 00:38:17;;;;;;;14.63;13.18;;;;;;;13.49;75.63;100686.59;4994806;28;20085;-74
2022/05/05 00:40:43;;;;;;;16.15;14.45;;;;;;;13.44;76.34;100684.03;4991108;28;20408;-74
2022/05/05 00:43:09;;;;;;;15.68;13.77;;;;;;;13.46;76.37;100690.16;4977587;28;20034;-74
2022/05/05 00:45:35;;;;;;;15.60;13.65;;;;;;;13.44;76.55;100673.44;4994943;28;20165;-74
2022/05/05 00:48:07;;;;;;;16.42;14.70;;;;;;;13.46;76.56;100670.75;4994451;28;20544;-74
2022/05/05 00:50:34;;;;;;;15.90;13.75;;;;;;;13.49;75.44;100676.00;4991623;28;20038;-74
2022/05/05 00:53:00;;;;;;;15.45;12.60;;;;;;;13.51;75.76;100672.41;4994712;28;20034;-74
2022/05/05 00:55:26;;;;;;;18.45;15.02;;;;;;;13.54;75.12;100675.00;4994548;28;20516;-74
2022/05/05 00:57:52;;;;;;;16.45;13.55;;;;;;;13.58;75.12;100676.72;4973635;28;20050;-74
2022/05/05 01:00:17;;;;;;;16.10;13.75;;;;;;;13.55;75.83;100682.09;4994741;28;20053;-74
2022/05/05 01:02:43;;;;;;;16.42;13.68;;;;;;;13.50;76.11;100675.97;4994521;28;20034;-74
2022/05/05 01:05:08;;;;;;;14.95;13.43;;;;;;;13.45;76.53;100676.97;4977368;28;20149;-74
2022/05/05 01:07:34;;;;;;;14.88;13.38;;;;;;;13.42;76.98;100677.88;4994655;28;20460;-74
2022/05/05 01:10:00;;;;;;;16.67;14.25;;;;;;;13.41;76.83;100673.47;4990844;28;20072;-74
2022/05/05 01:12:29;;;;;;;17.70;14.60;;;;;;;13.38;76.77;100668.22;4994357;28;20065;-74
2022/05/05 01:14:55;;;;;;;14.20;12.70;;;;;;;13.43;76.75;100665.50;4994448;28;20081;-74
2022/05/05 01:17:25;;;;;;;15.55;12.75;;;;;;;13.45;76.46;100667.22;4994515;28;20042;-74
2022/05/05 01:19:51;;;;;;;16.02;13.57;;;;;;;13.38;76.59;100670.88;4994399;28;20037;-74
2022/05/05 01:22:17;;;;;;;15.70;13.50;;;;;;;13.40;76.95;100666.41;4994146;28;20129;-74
2022/05/05 01:30:12;;;;;;;17.85;14.25;;;;;;;13.44;75.95;100665.47;4992104;28;20077;-74
2022/05/05 01:32:37;;;;;;;16.25;13.73;;;;;;;13.46;75.60;100657.50;4992923;28;20504;-74
2022/05/05 01:35:03;;;;;;;16.02;13.23;;;;;;;13.52;75.22;100668.88;4994080;28;20042;-73
2022/05/05 01:37:29;;;;;;;14.57;12.65;;;;;;;13.58;74.94;100660.81;4994140;28;20057;-74
2022/05/05 01:39:54;;;;;;;14.20;12.57;;;;;;;13.70;74.11;100670.38;4990241;28;20038;-74
2022/05/05 01:42:20;;;;;;;18.05;13.00;;;;;;;13.72;74.24;100668.53;4993930;28;20050;-74
2022/05/05 01:44:45;;;;;;;13.20;11.07;;;;;;;13.77;73.56;100665.81;4993921;28;20093;-74
2022/05/05 01:47:11;;;;;;;16.73;14.13;;;;;;;13.80;72.93;100671.94;4993968;28;20030;-73
2022/05/05 01:49:36;;;;;;;16.35;12.90;;;;;;;13.84;72.87;100667.47;4993979;28;20046;-74
2022/05/05 01:52:02;;;;;;;16.23;12.27;;;;;;;13.93;72.11;100661.97;4993746;28;20038;-74
2022/05/05 01:54:27;;;;;;;12.90;10.10;;;;;;;14.02;72.12;100660.97;4990099;28;20489;-73
2022/05/05 01:56:53;;;;;;;16.33;13.52;;;;;;;14.00;72.57;100679.56;4993817;28;20038;-74
2022/05/05 01:59:18;;;;;;;15.68;13.32;;;;;;;13.95;73.25;100680.53;4993935;28;20085;-74
2022/05/05 02:01:43;;;;;;;13.30;11.90;;;;;;;13.91;73.35;100690.34;4993478;28;20088;-74
2022/05/05 02:04:09;;;;;;;16.25;12.32;;;;;;;13.91;73.21;100697.41;4993576;28;20504;-74
2022/05/05 02:06:35;;;;;;;17.40;13.00;;;;;;;13.80;75.14;100717.03;4993698;28;20081;-73
2022/05/05 02:09:00;;;;;;;15.27;13.32;;;;;;;13.75;74.63;100726.88;4990902;28;20035;-74
2022/05/05 02:11:26;;;;;;;14.95;13.07;;;;;;;13.67;74.49;100734.03;4992527;28;20042;-73
2022/05/05 02:13:51;;;;;;;17.08;14.77;;;;;;;13.59;75.18;100734.16;4993297;28;20038;-74
2022/05/05 02:16:17;;;;;;;17.20;13.68;;;;;;;13.58;75.61;100737.72;4993450;28;20066;-74
2022/05/05 02:18:42;;;;;;;15.18;13.48;;;;;;;13.51;75.76;100744.00;4993280;28;20042;-74
2022/05/05 02:21:08;;;;;;;15.10;12.80;;;;;;;13.41;76.16;100744.16;4975768;28;20061;-73
2022/05/05 02:23:33;;;;;;;17.17;13.65;;;;;;;13.47;76.06;100742.31;4993276;28;20041;-73
2022/05/05 02:25:58;;;;;;;19.42;13.95;;;;;;;13.44;76.40;100738.81;4992633;28;20473;-73
2022/05/05 02:28:24;;;;;;;14.18;12.48;;;;;;;13.38;76.65;100751.25;4975648;28;20038;-74
2022/05/05 02:30:49;;;;;;;17.25;13.02;;;;;;;13.40;75.73;100745.94;4993133;28;20068;-73
2022/05/05 02:33:14;;;;;;;14.70;12.77;;;;;;;13.40;76.45;100751.25;4992362;28;20096;-74
2022/05/05 02:35:40;;;;;;;15.35;11.90;;;;;;;13.38;76.39;100740.66;4993271;28;20038;-73
2022/05/05 02:40:49;;;;;;;16.00;11.73;;;;;;;13.45;75.90;100741.47;4988560;28;20073;-74
2022/05/05 02:43:15;;;;;;;14.32;11.90;;;;;;;13.44;76.02;100742.38;4992657;28;20069;-74
2022/05/05 02:45:40;;;;;;;15.20;11.70;;;;;;;13.49;75.61;100751.13;4992704;28;20061;-74
2022/05/05 02:48:06;;;;;;;15.27;11.70;;;;;;;13.50;75.40;100746.72;4992449;28;20042;-74
2022/05/05 02:50:32;;;;;;;18.58;12.23;;;;;;;13.48;75.44;100749.38;4992850;28;20034;-73
2022/05/05 02:52:57;;;;;;;16.88;11.88;;;;;;;13.48;75.68;100748.50;4992468;28;20093;-74
2022/05/05 02:55:23;;;;;;;17.35;12.10;;;;;;;13.45;76.11;100740.59;4992651;28;20093;-73
2022/05/05 02:57:48;;;;;;;16.35;11.18;;;;;;;13.41;76.08;100734.44;4992569;28;20061;-73
2022/05/05 03:00:14;;;;;;;14.82;11.00;;;;;;;13.45;75.86;100738.81;4992134;28;20046;-73
2022/05/05 03:02:42;;;;;;;13.48;10.20;;;;;;;13.50;75.55;100739.63;4991290;28;20042;-73
2022/05/05 03:05:13;;;;;;;13.02;10.52;;;;;;;13.54;75.45;100740.44;4992395;28;20073;-73
2022/05/05 03:07:39;;;;;;;12.43;9.95;;;;;;;13.58;74.95;100734.19;4975138;28;20044;-73
2022/05/05 03:10:05;;;;;;;15.90;11.07;;;;;;;13.63;74.68;100745.63;4988623;28;20458;-73
2022/05/05 03:12:30;;;;;;;17.02;12.25;;;;;;;13.67;74.68;100754.38;4992009;28;20045;-74
2022/05/05 03:14:56;;;;;;;13.32;11.00;;;;;;;13.62;74.90;100743.84;4992206;28;20045;-73
2022/05/05 03:17:21;;;;;;;14.18;10.73;;;;;;;13.63;74.29;100747.41;4992279;28;20096;-73
2022/05/05 03:19:46;;;;;;;12.13;8.75;;;;;;;13.65;74.57;100750.88;4992169;28;20046;-73
2022/05/05 03:22:12;;;;;;;13.75;11.05;;;;;;;13.55;75.62;100748.38;4992030;28;20046;-73
2022/05/05 03:24:37;;;;;;;15.32;11.57;;;;;;;13.58;74.61;100750.97;4992033;28;20046;-73
2022/05/05 03:27:04;;;;;;;14.77;10.38;;;;;;;13.58;74.83;100747.47;4974659;28;20069;-73
2022/05/05 03:29:30;;;;;;;13.90;10.40;;;;;;;13.55;74.97;100745.72;4988258;28;20041;-73
2022/05/05 03:31:55;;;;;;;13.85;10.00;;;;;;;13.53;75.56;100749.31;4991876;28;20054;-74
2022/05/05 03:34:21;;;;;;;14.65;11.98;;;;;;;13.43;76.69;100755.63;4991959;28;20061;-73
2022/05/05 03:36:46;;;;;;;13.40;11.05;;;;;;;13.44;76.32;100741.47;4992110;28;20050;-73
2022/05/05 03:39:11;;;;;;;21.40;12.90;;;;;;;13.46;76.75;100740.56;4988821;28;20122;-73
2022/05/05 03:41:37;;;;;;;14.80;10.80;;;;;;;13.52;76.26;100744.91;4990748;28;20026;-74
2022/05/05 03:44:04;;;;;;;12.18;10.43;;;;;;;13.56;76.23;100747.47;4991709;28;20404;-73
2022/05/05 03:46:30;;;;;;;15.85;11.27;;;;;;;13.57;76.08;100749.25;4989185;28;20536;-73
2022/05/05 03:48:56;;;;;;;14.18;11.93;;;;;;;13.53;76.35;100759.91;4990806;28;20509;-73
2022/05/05 03:51:22;;;;;;;14.68;12.20;;;;;;;13.53;76.65;100759.91;4991486;28;20072;-73
2022/05/05 03:53:47;;;;;;;16.00;13.48;;;;;;;13.55;76.95;100764.28;4991102;28;20134;-74
2022/05/05 03:56:12;;;;;;;15.05;11.05;;;;;;;13.55;77.46;100769.59;4991539;28;20038;-74
2022/05/05 03:58:38;;;;;;;18.27;13.50;;;;;;;13.52;77.61;100774.94;4987989;28;20089;-73
2022/05/05 04:01:03;;;;;;;18.08;13.25;;;;;;;13.43;78.21;100777.72;4991049;28;20547;-74
2022/05/05 04:03:31;;;;;;;16.38;12.77;;;;;;;13.45;78.64;100770.63;4991749;28;20035;-73
2022/05/05 04:06:03;;;;;;;18.17;15.20;;;;;;;13.45;78.97;100772.41;4991772;28;20046;-73
2022/05/05 04:08:29;;;;;;;;;;;;;;;13.39;79.86;100781.31;4974724;28;20119;-73
2022/05/05 04:10:54;;;;;;;16.50;14.55;;;;;;;13.40;79.79;100776.91;4987967;28;19918;-73
2022/05/05 04:13:20;;;;;;;20.40;14.77;;;;;;;13.41;80.49;100782.16;4991605;28;20511;-73
2022/05/05 04:15:47;;;;;;;21.90;17.38;;;;;;;13.38;80.90;100787.50;4988521;28;20045;-74
2022/05/05 04:18:12;;;;;;;17.92;16.00;;;;;;;13.40;80.82;100788.38;4990090;28;20058;-74
2022/05/05 04:20:38;;;;;;;18.77;16.77;;;;;;;13.46;81.22;100793.56;4991210;28;20124;-74
2022/05/05 04:23:03;;;;;;;19.88;16.95;;;;;;;13.52;80.65;100782.91;4991302;28;20085;-74
2022/05/05 04:25:29;;;;;;;21.45;18.60;;;;;;;13.55;80.93;100788.16;4991172;28;20034;-74
2022/05/05 04:27:55;;;;;;;17.77;15.90;;;;;;;13.53;80.70;100789.94;4976560;28;20473;-74
2022/05/05 04:30:21;;;;;;;17.67;15.63;;;;;;;13.57;80.63;100796.97;4985379;28;20082;-74
2022/05/05 04:32:46;;;;;;;21.98;17.23;;;;;;;13.58;80.91;100793.41;4986862;28;20042;-74
2022/05/05 04:35:12;;;;;;;21.45;19.25;;;;;;;13.54;81.73;100794.34;4991278;28;20117;-74
2022/05/05 04:37:39;;;;;;;18.90;16.20;;;;;;;13.56;81.71;100805.81;4990579;28;20045;-74
2022/05/05 04:40:05;;;;;;;19.25;16.35;;;;;;;13.54;82.18;100807.59;4988722;28;20039;-74
2022/05/05 04:42:31;;;;;;;21.70;17.73;;;;;;;13.59;81.54;100803.09;4982381;28;20101;-74
2022/05/05 04:44:56;;;;;;;18.95;16.60;;;;;;;13.61;82.05;100808.41;4987302;28;20034;-74
2022/05/05 04:47:21;;;;;;;19.08;16.75;;;;;;;13.52;83.03;100814.72;4989534;28;20548;-74
2022/05/05 04:49:47;;;;;;;19.95;16.92;;;;;;;13.63;82.64;100821.66;4970437;28;20065;-74
2022/05/05 04:52:13;;;;;;;19.77;17.70;;;;;;;13.79;81.84;100823.19;4986557;28;20073;-74
2022/05/05 04:54:38;;;;;;;20.10;15.90;;;;;;;13.83;81.40;100822.22;4987456;28;20070;-74
2022/05/05 04:57:04;;;;;;;18.73;16.52;;;;;;;14.00;80.62;100821.97;4990804;28;20038;-74
2022/05/05 04:59:29;;;;;;;22.70;17.50;;;;;;;14.05;80.51;100829.88;4990675;28;20121;-74
2022/05/05 05:01:54;;;;;;;20.33;18.13;;;;;;;14.00;80.82;100830.81;4987441;28;20034;-74
2022/05/05 05:04:20;;;;;;;19.02;16.98;;;;;;;13.90;81.97;100836.28;4970781;28;20050;-74
2022/05/05 05:06:45;;;;;;;21.48;17.02;;;;;;;13.84;82.68;100841.69;4988649;28;20092;-74
2022/05/05 05:09:10;;;;;;;24.02;18.88;;;;;;;13.77;83.34;100841.75;4989767;28;20405;-74
2022/05/05 05:11:36;;;;;;;23.13;17.58;;;;;;;13.68;84.25;100841.91;4989929;28;20421;-74
2022/05/05 05:14:01;;;;;;;21.52;18.80;;;;;;;13.55;84.91;100846.50;4991015;28;20500;-74
2022/05/05 05:16:27;;;;;;;24.73;19.73;;;;;;;13.61;84.59;100844.66;4993164;28;20108;-73
2022/05/05 05:18:53;;;;;;;25.23;18.95;;;;;;;13.56;85.46;100850.88;4994498;28;20116;-74
2022/05/05 05:21:22;;;;;;;20.92;18.67;;;;;;;13.61;84.99;100849.97;4993292;28;20030;-74
2022/05/05 05:23:47;;;;;;;23.35;17.92;;;;;;;13.55;84.90;100843.84;4990565;28;20505;-74
2022/05/05 05:26:15;;;;;;;21.85;17.63;;;;;;;13.46;86.01;100851.03;4994346;28;20092;-74
2022/05/05 05:28:41;;;;;;;21.67;19.40;;;;;;;13.49;85.90;100853.63;4994346;28;20042;-74
2022/05/05 05:31:07;;;;;;;26.40;20.08;;;;;;;13.40;86.18;100857.28;4994044;28;20046;-73
2022/05/05 05:33:32;;;;;;;25.20;19.90;;;;;;;13.35;86.56;100864.44;4994131;28;20038;-74
2022/05/05 05:35:58;;;;;;;19.63;15.57;;;;;;;13.35;86.68;100860.00;4994169;28;20105;-73
2022/05/05 05:38:23;;;;;;;22.55;18.35;;;;;;;13.12;88.17;100862.88;4992934;28;20114;-73
2022/05/05 05:40:48;;;;;;;19.83;17.08;;;;;;;13.06;89.35;100867.38;4993704;28;20495;-74
2022/05/05 05:43:14;;;;;;;19.23;15.98;;;;;;;13.00;89.02;100860.38;4993758;28;20393;-74
2022/05/05 05:45:40;;;;;;;21.38;16.13;;;;;;;12.95;90.11;100859.56;4993728;28;20454;-73
2022/05/05 05:48:06;;;;;;;22.95;16.17;;;;;;;12.99;90.02;100868.34;4993858;28;20113;-73
2022/05/05 05:50:32;;;;;;;21.55;17.75;;;;;;;12.94;90.24;100858.69;4992845;28;20489;-74
2022/05/05 05:52:58;;;;;;;23.38;16.73;;;;;;;12.82;91.21;100863.22;4989923;28;20046;-73
2022/05/05 05:55:23;;;;;;;22.98;18.25;;;;;;;12.82;91.49;100869.41;4993618;28;20069;-73
2022/05/05 05:57:49;;;;;;;21.90;17.50;;;;;;;12.84;91.71;100866.75;4993719;28;20449;-74
2022/05/05 06:00:14;;;;;;;24.80;16.73;;;;;;;12.88;91.38;100863.16;4993260;28;20577;-74
2022/05/05 06:05:24;;;;;;;24.25;16.88;;;;;;;12.90;91.18;100875.50;4991444;28;20117;-74
2022/05/05 06:07:50;;;;;;;18.10;15.75;;;;;;;12.98;91.09;100872.78;4993786;28;20109;-74
2022/05/05 06:10:19;;;;;;;21.10;16.42;;;;;;;13.08;91.50;100876.22;4989765;28;20058;-74
2022/05/05 06:12:45;;;;;;;23.13;16.33;;;;;;;13.11;90.31;100886.78;4990019;28;20042;-74
2022/05/05 06:15:11;;;;;;;23.00;16.92;;;;;;;13.12;89.71;100878.78;4993324;28;20037;-74
2022/05/05 06:17:36;;;;;;;22.50;16.63;;;;;;;13.11;90.05;100882.34;4992670;28;20034;-74
2022/05/05 06:20:03;;;;;;;19.08;15.50;;;;;;;13.23;89.61;100897.25;4993191;28;20405;-74
2022/05/05 06:22:28;;;;;;;20.58;15.10;;;;;;;13.28;89.20;100895.44;4992930;28;20527;-73
2022/05/05 06:24:53;;;;;;;19.88;14.63;;;;;;;13.38;88.52;100898.84;4992998;28;20053;-74
2022/05/05 06:27:19;;;;;;;21.33;15.60;;;;;;;13.50;87.59;100896.06;4992970;28;20045;-74
2022/05/05 06:29:44;;;;;;;19.52;13.75;;;;;;;13.56;86.66;100900.41;4992426;28;20113;-73
2022/05/05 06:32:09;;;;;;;17.88;12.23;;;;;;;13.63;85.65;100907.41;4992881;28;20038;-73
2022/05/05 06:34:35;;;;;;;15.20;12.77;;;;;;;13.67;85.73;100906.44;4992859;28;20038;-73
2022/05/05 06:37:01;;;;;;;23.15;14.13;;;;;;;13.73;85.27;100911.69;4993084;28;20051;-74
2022/05/05 06:39:26;;;;;;;18.52;12.80;;;;;;;13.85;83.63;100918.59;4980224;28;20527;-74
2022/05/05 06:41:52;;;;;;;16.80;13.02;;;;;;;13.80;83.46;100909.81;4992643;28;20038;-74
2022/05/05 06:44:17;;;;;;;17.27;11.85;;;;;;;13.78;83.15;100911.59;4992198;28;20045;-74
2022/05/05 06:46:44;;;;;;;17.27;12.98;;;;;;;13.77;84.80;100915.16;4992155;28;20108;-73
2022/05/05 06:49:10;;;;;;;19.95;12.75;;;;;;;13.84;83.80;100914.19;4991398;28;20030;-74
2022/05/05 06:51:36;;;;;;;16.63;12.82;;;;;;;13.89;83.00;100917.66;4975088;28;20397;-73
2022/05/05 06:54:01;;;;;;;16.73;13.07;;;;;;;13.90;83.59;100921.19;4992447;28;20048;-74
2022/05/05 06:56:27;;;;;;;17.13;12.93;;;;;;;14.05;83.32;100926.28;4992527;28;20046;-73
2022/05/05 06:58:53;;;;;;;15.90;12.00;;;;;;;14.17;82.30;100925.22;4991765;28;20038;-74
2022/05/05 07:06:46;;;;;;;15.88;11.20;;;;;;;14.50;80.23;100928.28;4992376;28;20031;-74
2022/05/05 07:11:55;;;;;;;14.18;11.30;;;;;;;14.73;79.51;100926.16;4974531;28;20034;-74
2022/05/05 07:14:20;;;;;;;17.20;11.35;;;;;;;14.86;77.83;100930.34;4991514;28;20669;-74
2022/05/05 07:16:45;;;;;;;16.35;10.88;;;;;;;14.89;77.65;100929.41;4991930;28;20038;-74
2022/05/05 07:19:11;;;;;;;12.45;10.20;;;;;;;15.00;76.68;100934.53;4989619;28;20129;-74
2022/05/05 07:21:37;;;;;;;19.13;11.85;;;;;;;14.92;76.63;100942.66;4991789;28;20086;-74
2022/05/05 07:24:04;;;;;;;15.13;10.88;;;;;;;14.73;76.66;100942.09;4991972;28;20039;-73
2022/05/05 07:26:29;;;;;;;13.57;10.25;;;;;;;14.74;76.75;100941.19;4982718;28;20038;-74
2022/05/05 07:28:54;;;;;;;11.30;9.82;;;;;;;14.83;77.45;100943.69;5026179;22;20052;-74
2022/05/05 07:31:20;;;;;;;13.43;9.68;;;;;;;14.88;76.32;100931.22;5010925;28;20068;-74
2022/05/05 07:33:45;;;;;;;13.38;9.63;;;;;;;15.08;75.98;100938.81;5011460;28;20100;-74
2022/05/05 07:36:10;;;;;;;13.07;10.35;;;;;;;15.16;75.79;100941.31;5011630;28;20029;-74
2022/05/05 07:38:36;;;;;;;15.05;9.20;;;;;;;15.31;74.90;100942.81;5011441;28;20033;-74
2022/05/05 07:41:01;;;;;;;11.07;9.13;;;;;;;15.37;75.12;100944.50;5011467;28;20045;-74
2022/05/05 07:43:27;;;;;;;13.85;9.27;;;;;;;15.51;73.85;100951.31;5011576;28;20777;-74
2022/05/05 07:45:52;;;;;;;12.32;9.05;;;;;;;15.42;73.09;100947.94;5010973;28;20036;-74
2022/05/05 07:48:19;;;;;;;11.73;9.00;;;;;;;15.31;73.83;100946.34;5009960;28;20451;-74
2022/05/05 07:50:47;;;;;;;12.80;9.32;;;;;;;15.27;73.45;100955.31;5009954;28;20037;-74
2022/05/05 07:53:13;;;;;;;14.38;8.90;;;;;;;15.34;73.88;100956.06;5011306;28;20496;-74
2022/05/05 07:55:38;;;;;;;14.38;8.85;;;;;;;15.48;74.13;100954.03;5011447;28;20414;-74
2022/05/05 07:58:03;;;;;;;11.10;7.53;;;;;;;15.66;72.84;100946.56;5008520;28;20030;-74
2022/05/05 08:00:29;;;;;;;12.90;8.23;;;;;;;15.63;71.61;100949.28;5010876;28;20026;-74
2022/05/05 08:02:54;;;;;;;10.80;7.72;;;;;;;15.65;70.31;100950.16;5010990;28;20485;-74
2022/05/05 08:05:19;;;;;;;11.85;7.57;;;;;;;15.74;70.89;100940.19;5008278;28;20042;-74
2022/05/05 08:07:48;;;;;;;11.52;8.18;;;;;;;15.94;69.30;100941.56;5009163;28;20408;-74
2022/05/05 08:10:13;;;;;;;13.57;9.90;;;;;;;16.17;68.95;100944.59;5008413;28;20042;-74
2022/05/05 08:12:39;;;;;;;12.60;8.15;;;;;;;16.43;67.64;100943.13;5010906;28;20096;-74
2022/05/05 08:15:06;;;;;;;11.35;7.47;;;;;;;16.52;65.97;100944.69;5011232;28;20409;-74
2022/05/05 08:17:33;;;;;;;10.35;7.22;;;;;;;16.57;66.21;100942.78;5010860;28;20069;-74
2022/05/05 08:19:59;;;;;;;8.77;7.28;;;;;;;16.76;66.15;100949.41;5011086;28;20053;-74
2022/05/05 08:22:24;;;;;;;10.18;6.80;;;;;;;16.86;64.97;100940.28;5010736;28;20485;-74
2022/05/05 08:30:17;;;;;;;9.35;6.22;;;;;;;17.83;60.71;100944.81;5008729;28;20109;-74
2022/05/05 08:32:42;;;;;;;7.18;6.15;;;;;;;18.14;58.91;100944.75;5009622;28;20117;-75
2022/05/05 08:35:07;;;;;;;8.00;5.85;;;;;;;18.36;58.38;100945.81;5009555;28;20034;-74
2022/05/05 08:37:33;;;;;;;8.52;5.60;;;;;;;18.47;57.04;100947.28;5009556;28;20070;-74
2022/05/05 08:39:58;;;;;;;11.93;5.85;;;;;;;18.81;55.62;100955.97;5008451;28;20041;-74
2022/05/05 08:42:24;;;;;;;6.80;5.15;;;;;;;18.86;55.99;100944.25;5012927;28;20037;-74
2022/05/05 08:44:50;;;;;;;11.25;5.63;;;;;;;19.06;55.92;100941.75;5010262;28;20514;-74
2022/05/05 08:47:17;;;;;;;7.82;5.10;;;;;;;19.12;55.41;100952.25;5014276;28;20030;-74
2022/05/05 08:49:43;;;;;;;7.70;5.50;;;;;;;19.30;54.42;100949.84;5014390;28;20120;-74
2022/05/05 08:52:11;;;;;;;7.68;6.05;;;;;;;19.22;53.53;100953.66;5014178;28;20116;-74
2022/05/05 08:54:40;;;;;;;8.02;5.35;;;;;;;18.99;52.66;100954.50;5014325;28;20042;-74
2022/05/05 08:57:05;;;;;;;9.15;5.45;;;;;;;19.02;53.28;100961.50;5013566;28;20060;-75
2022/05/05 08:59:31;;;;;;;10.00;5.25;;;;;;;19.05;53.83;100950.72;5014217;28;20061;-74
2022/05/05 09:01:56;;;;;;;10.18;6.10;;;;;;;19.03;53.61;100957.94;5014164;28;20034;-75
2022/05/05 09:04:22;;;;;;;7.22;6.03;;;;;;;18.89;54.04;100965.53;5010391;28;20041;-75
2022/05/05 09:06:50;;;;;;;8.43;5.75;;;;;;;18.83;54.18;100951.44;5014185;28;20042;-74
2022/05/05 09:09:25;;;;;;;8.07;5.18;;;;;;;19.11;52.48;100955.84;5014020;28;20038;-75
2022/05/05 09:12:15;;;;;;;10.07;7.03;;;;;;;19.51;52.03;100957.09;5013760;28;20049;-75
2022/05/05 09:14:53;;;;;;;6.63;5.20;;;;;;;19.72;51.31;100954.59;5014296;28;20069;-74
2022/05/05 09:17:20;;;;;;;10.95;5.40;;;;;;;19.67;50.98;100963.66;5014084;28;20057;-75
2022/05/05 09:19:51;;;;;;;7.43;5.45;;;;;;;19.61;49.91;100966.53;5014357;28;20457;-75
2022/05/05 09:22:18;;;;;;;8.05;4.88;;;;;;;19.15;49.84;100968.22;5010325;28;20077;-75
2022/05/05 09:24:49;;;;;;;7.07;4.60;;;;;;;19.02;50.44;100967.75;5014170;28;20381;-74
2022/05/05 09:27:32;;;;;;;8.33;5.23;;;;;;;19.21;48.04;100972.47;5012047;28;20033;-75
2022/05/05 09:30:03;;;;;;;7.68;5.38;;;;;;;19.16;48.57;100969.06;5009314;28;20069;-75
2022/05/05 09:32:34;;;;;;;8.77;5.10;;;;;;;19.13;48.19;100977.22;5011601;28;20049;-75
2022/05/05 09:35:18;;;;;;;10.00;5.28;;;;;;;19.01;49.21;100983.84;5013928;28;20504;-75
2022/05/05 09:37:50;;;;;;;9.77;4.85;;;;;;;18.86;48.32;100989.69;5008759;28;20416;-75
2022/05/05 09:40:20;;;;;;;10.02;5.22;;;;;;;19.05;48.62;100985.50;5013729;28;20127;-74
2022/05/05 09:42:51;;;;;;;7.22;5.07;;;;;;;19.44;47.67;100988.59;5013580;28;20401;-75
2022/05/05 09:45:24;;;;;;;7.07;5.07;;;;;;;19.54;46.60;100981.06;5012111;28;20034;-75
2022/05/05 09:47:55;;;;;;;7.75;4.60;;;;;;;19.48;46.21;100992.03;5013054;28;20034;-75
2022/05/05 09:50:22;;;;;;;7.63;4.20;;;;;;;19.62;45.91;100994.19;5013303;28;20053;-75
2022/05/05 09:58:26;;;;;;;7.57;4.47;;;;;;;20.45;45.82;101002.66;5012019;28;20121;-75
2022/05/05 10:01:04;;;;;;;7.25;4.90;;;;;;;20.45;45.43;100997.31;5011108;28;20070;-75
2022/05/05 10:04:00;;;;;;;8.95;5.72;;;;;;;20.62;45.55;100990.41;5007166;28;20443;-75
2022/05/05 10:06:41;;;;;;;7.47;5.50;;;;;;;20.42;46.48;100997.44;5009259;28;20029;-75
2022/05/05 10:09:14;;;;;;;7.82;5.20;;;;;;;20.41;47.17;101005.53;5003314;28;20812;-76
2022/05/05 10:11:41;;;;;;;8.27;6.30;;;;;;;19.95;47.79;101001.97;5007884;28;20048;-75
2022/05/05 10:14:08;;;;;;;10.65;5.38;;;;;;;19.89;47.49;101003.06;5003509;28;20955;-75
2022/05/05 10:16:36;;;;;;;8.52;5.63;;;;;;;20.08;46.67;101003.25;5007543;28;20126;-75
2022/05/05 10:19:04;;;;;;;8.27;5.47;;;;;;;20.55;46.68;101006.78;5007502;28;20087;-75
2022/05/05 10:21:50;;;;;;;8.13;5.60;;;;;;;20.87;44.98;100996.53;5006532;28;20033;-75
2022/05/05 10:24:22;;;;;;;9.35;5.93;;;;;;;21.17;43.88;100998.88;5011529;28;20033;-75
2022/05/05 10:26:52;;;;;;;8.25;5.85;;;;;;;20.88;43.00;101008.13;5011104;28;20392;-75
2022/05/05 10:29:41;;;;;;;8.02;5.75;;;;;;;20.40;44.07;100993.06;5010958;28;20060;-75
2022/05/05 10:32:16;;;;;;;8.88;5.53;;;;;;;20.17;44.95;101002.88;5003339;28;20045;-74
2022/05/05 10:34:46;;;;;;;12.93;5.55;;;;;;;20.73;44.46;100989.06;5010604;28;20508;-75
2022/05/05 10:37:13;;;;;;;8.65;4.85;;;;;;;21.20;43.06;100993.38;5015593;28;20042;-74
2022/05/05 10:39:41;;;;;;;7.82;5.25;;;;;;;21.62;42.16;100992.47;5010569;28;20045;-75
2022/05/05 10:42:18;;;;;;;10.52;6.25;;;;;;;21.90;41.82;100997.44;5009129;28;20041;-75
2022/05/05 10:45:10;;;;;;;7.53;5.30;;;;;;;21.45;43.05;100999.44;5007232;28;20041;-75
2022/05/05 10:48:01;;;;;;;7.47;5.65;;;;;;;20.87;40.81;100987.63;5006721;28;20057;-75
2022/05/05 10:50:54;;;;;;;7.38;5.43;;;;;;;20.48;43.31;101002.53;5010845;28;20046;-75
2022/05/05 10:53:41;;;;;;;7.63;4.97;;;;;;;20.32;44.53;101004.09;5010067;28;20053;-75
2022/05/05 10:56:27;;;;;;;8.13;4.72;;;;;;;20.95;41.21;100997.09;5012202;28;20132;-75
2022/05/05 10:59:09;;;;;;;10.65;5.38;;;;;;;21.32;42.55;100995.50;5010012;28;20049;-74
2022/05/05 11:01:56;;;;;;;7.18;4.75;;;;;;;21.59;41.09;101009.59;5005372;28;20034;-75
2022/05/05 11:04:28;;;;;;;8.50;5.03;;;;;;;21.51;42.20;101005.47;5008332;28;20622;-75
2022/05/05 11:07:13;;;;;;;;;;;;;;;21.16;43.25;101007.84;5012553;28;20558;-75
2022/05/05 11:09:39;;;;;;;7.53;4.70;;;;;;;20.97;43.55;101005.94;5008584;28;20311;-76
2022/05/05 11:12:15;;;;;;;6.90;5.20;;;;;;;20.97;43.95;101005.94;5007232;28;20036;-76
2022/05/05 11:23:25;;;;;;;8.20;5.13;;;;;;;21.50;41.98;100987.63;5005178;28;20049;-74
2022/05/05 11:25:51;;;;;;;8.35;4.88;;;;;;;21.23;41.74;100988.75;5008799;28;20067;-74
2022/05/05 11:28:17;;;;;;;9.90;4.88;;;;;;;21.42;41.05;100987.97;5011312;28;20069;-74
2022/05/05 11:30:43;;;;;;;9.35;4.07;;;;;;;21.83;41.40;100991.50;5011483;28;20038;-74
2022/05/05 11:33:09;;;;;;;7.47;4.80;;;;;;;21.92;41.38;100981.25;5010689;28;20037;-74
2022/05/05 11:35:35;;;;;;;6.32;4.22;;;;;;;22.09;40.97;100984.03;5011558;28;20034;-75
2022/05/05 11:38:00;;;;;;;11.70;5.22;;;;;;;21.98;40.11;100983.66;5011591;28;20045;-74
2022/05/05 11:40:33;;;;;;;6.97;4.60;;;;;;;21.70;41.21;100990.31;5008546;28;20397;-74
2022/05/05 11:45:44;;;;;;;7.85;4.32;;;;;;;21.51;41.77;100994.72;5006659;28;20034;-74
2022/05/05 11:48:16;;;;;;;8.70;4.90;;;;;;;21.00;40.26;100989.72;5011190;28;20045;-74
2022/05/05 11:50:43;;;;;;;8.38;5.07;;;;;;;20.69;39.50;100994.59;5011304;28;20416;-74
2022/05/05 11:53:17;;;;;;;11.85;5.40;;;;;;;20.51;40.79;100991.72;5009942;28;20083;-74
2022/05/05 11:55:45;;;;;;;6.95;4.85;;;;;;;20.74;40.65;100992.63;5009511;28;20034;-74
2022/05/05 12:04:00;;;;;;;6.63;5.30;;;;;;;21.63;41.97;100983.44;5010020;28;20460;-74
2022/05/05 12:06:27;;;;;;;9.57;5.63;;;;;;;21.71;42.17;100973.22;5007642;28;20128;-74
2022/05/05 12:08:53;;;;;;;9.85;5.03;;;;;;;21.93;42.62;100970.44;5011071;28;20042;-74